createdAt,value
2023-04-18T00:02:20.869Z,4.90
2023-04-18T00:05:23.264Z,5.07
2023-04-18T00:08:25.852Z,5.28
2023-04-18T00:11:28.285Z,4.18
2023-04-18T00:14:31.351Z,4.57
2023-04-18T00:17:33.339Z,4.90
2023-04-18T00:20:39.123Z,4.72
2023-04-18T00:23:42.167Z,4.30
2023-04-18T00:26:44.880Z,4.28
2023-04-18T00:29:47.653Z,4.10
2023-04-18T00:32:52.157Z,4.43
2023-04-18T00:35:54.516Z,3.97
2023-04-18T00:38:57.331Z,3.47
2023-04-18T00:41:59.563Z,4.70
2023-04-18T00:45:02.933Z,4.32
2023-04-18T00:48:05.300Z,4.47
2023-04-18T00:51:09.644Z,4.60
2023-04-18T00:54:13.893Z,4.55
2023-04-18T00:57:16.872Z,5.32
2023-04-18T01:00:19.355Z,3.83
2023-04-18T01:03:23.171Z,3.88
2023-04-18T01:06:27.511Z,4.70
2023-04-18T01:09:32.234Z,4.90
2023-04-18T01:12:34.510Z,4.22
2023-04-18T01:15:37.289Z,5.07
2023-04-18T01:18:40.501Z,4.75
2023-04-18T01:21:44.853Z,5.53
2023-04-18T01:24:50.315Z,4.78
2023-04-18T01:27:55.006Z,4.85
2023-04-18T01:30:57.556Z,5.85
2023-04-18T01:34:00.507Z,4.03
2023-04-18T01:37:02.650Z,4.80
2023-04-18T01:40:05.513Z,4.45
2023-04-18T01:43:07.834Z,4.50
2023-04-18T01:46:13.728Z,5.20
2023-04-18T01:49:16.578Z,4.32
2023-04-18T01:52:20.084Z,4.72
2023-04-18T01:55:22.940Z,4.70
2023-04-18T01:58:25.963Z,5.10
2023-04-18T02:01:28.407Z,4.90
2023-04-18T02:04:31.686Z,3.72
2023-04-18T02:07:33.659Z,4.57
2023-04-18T02:10:36.789Z,3.92
2023-04-18T02:13:39.813Z,4.25
2023-04-18T02:16:42.831Z,4.28
2023-04-18T02:19:44.843Z,4.63
2023-04-18T02:22:48.279Z,5.63
2023-04-18T02:25:51.409Z,5.70
2023-04-18T02:28:54.246Z,4.65
2023-04-18T02:31:58.569Z,4.35
2023-04-18T02:35:01.296Z,4.63
2023-04-18T02:38:03.722Z,6.03
2023-04-18T02:41:06.532Z,5.10
2023-04-18T02:44:09.170Z,4.72
2023-04-18T02:47:14.116Z,5.45
2023-04-18T02:50:19.802Z,5.05
2023-04-18T02:53:24.756Z,5.30
2023-04-18T02:56:31.038Z,5.63
2023-04-18T02:59:54.305Z,5.47
2023-04-18T03:03:17.259Z,5.07
2023-04-18T03:06:32.355Z,5.68
2023-04-18T03:09:37.096Z,5.07
2023-04-18T03:12:48.722Z,4.60
2023-04-18T03:18:56.524Z,4.15
2023-04-18T03:21:59.160Z,5.30
2023-04-18T03:25:03.807Z,6.53
2023-04-18T03:28:19.433Z,5.97
2023-04-18T03:31:22.442Z,5.90
2023-04-18T03:34:24.642Z,6.20
2023-04-18T03:37:28.954Z,5.65
2023-04-18T03:40:32.715Z,5.87
2023-04-18T03:43:42.308Z,4.78
2023-04-18T03:46:44.646Z,5.10
2023-04-18T03:49:49.039Z,5.18
2023-04-18T03:52:52.584Z,6.20
2023-04-18T03:55:55.336Z,5.57
2023-04-18T03:59:01.532Z,6.30
2023-04-18T04:02:04.342Z,6.47
2023-04-18T04:05:06.872Z,5.80
2023-04-18T04:08:10.366Z,4.68
2023-04-18T04:11:12.707Z,6.32
2023-04-18T04:14:16.184Z,5.22
2023-04-18T04:17:22.665Z,6.38
2023-04-18T04:20:26.950Z,5.85
2023-04-18T04:23:43.471Z,5.10
2023-04-18T04:26:56.530Z,6.20
2023-04-18T04:30:01.034Z,4.72
2023-04-18T04:33:04.484Z,6.82
2023-04-18T04:36:07.828Z,6.68
2023-04-18T04:39:12.140Z,6.30
2023-04-18T04:42:29.724Z,6.03
2023-04-18T04:45:41.651Z,5.97
2023-04-18T04:48:44.125Z,6.40
2023-04-18T04:51:46.542Z,4.57
2023-04-18T04:54:48.793Z,7.15
2023-04-18T04:57:57.811Z,5.80
2023-04-18T05:01:11.394Z,5.88
2023-04-18T05:04:14.534Z,5.30
2023-04-18T05:07:17.119Z,5.05
2023-04-18T05:10:19.749Z,4.40
2023-04-18T05:13:21.953Z,6.07
2023-04-18T05:16:24.620Z,6.05
2023-04-18T05:19:27.195Z,6.18
2023-04-18T05:22:29.900Z,5.78
2023-04-18T05:25:32.542Z,5.25
2023-04-18T05:28:35.189Z,5.97
2023-04-18T05:31:37.990Z,5.75
2023-04-18T05:34:41.274Z,4.90
2023-04-18T05:37:43.659Z,6.07
2023-04-18T05:40:46.878Z,4.38
2023-04-18T05:43:58.218Z,4.13
2023-04-18T05:47:07.622Z,5.97
2023-04-18T05:50:11.209Z,6.63
2023-04-18T05:53:13.818Z,4.82
2023-04-18T05:56:16.161Z,4.93
2023-04-18T05:59:20.777Z,5.03
2023-04-18T06:02:23.226Z,5.93
2023-04-18T06:05:26.342Z,4.32
2023-04-18T06:08:28.736Z,4.50
2023-04-18T06:11:33.797Z,5.47
2023-04-18T06:17:38.749Z,4.00
2023-04-18T06:20:42.761Z,3.70
2023-04-18T06:23:45.692Z,4.53
2023-04-18T06:26:47.908Z,3.92
2023-04-18T06:29:50.807Z,5.47
2023-04-18T06:32:53.194Z,4.78
2023-04-18T06:35:57.427Z,4.80
2023-04-18T06:38:59.708Z,4.38
2023-04-18T06:42:02.788Z,3.10
2023-04-18T06:45:07.017Z,5.50
2023-04-18T06:48:11.189Z,5.05
2023-04-18T06:51:14.673Z,4.83
2023-04-18T06:54:17.729Z,4.55
2023-04-18T06:57:20.070Z,5.97
2023-04-18T07:00:22.672Z,4.90
2023-04-18T07:03:25.575Z,4.60
2023-04-18T07:06:28.860Z,5.50
2023-04-18T07:09:32.468Z,4.32
2023-04-18T07:12:36.094Z,3.10
2023-04-18T07:15:38.364Z,6.00
2023-04-18T07:18:41.161Z,4.05
2023-04-18T07:21:45.464Z,5.93
2023-04-18T07:24:47.943Z,5.40
2023-04-18T07:27:50.496Z,5.20
2023-04-18T07:30:53.112Z,5.95
2023-04-18T07:33:55.687Z,5.80
2023-04-18T07:37:24.733Z,4.93
2023-04-18T07:40:28.448Z,5.43
2023-04-18T07:43:31.891Z,4.90
2023-04-18T07:46:40.489Z,3.45
2023-04-18T07:49:43.850Z,6.10
2023-04-18T07:52:49.133Z,4.53
2023-04-18T07:55:51.682Z,5.07
2023-04-18T07:58:54.000Z,5.13
2023-04-18T08:01:56.888Z,4.20
2023-04-18T08:04:59.165Z,5.47
2023-04-18T08:08:01.802Z,5.45
2023-04-18T08:11:04.235Z,3.60
2023-04-18T08:14:06.928Z,3.72
2023-04-18T08:17:09.873Z,4.55
2023-04-18T08:20:13.307Z,5.30
2023-04-18T08:23:16.016Z,4.30
2023-04-18T08:26:18.435Z,3.80
2023-04-18T08:29:20.889Z,5.30
2023-04-18T08:32:24.168Z,4.80
2023-04-18T08:35:26.941Z,4.75
2023-04-18T08:38:29.504Z,3.15
2023-04-18T08:41:38.165Z,6.50
2023-04-18T08:44:40.867Z,5.45
2023-04-18T08:47:43.391Z,4.43
2023-04-18T08:50:46.310Z,4.82
2023-04-18T08:53:48.724Z,5.38
2023-04-18T08:57:04.968Z,2.78
2023-04-18T09:00:10.809Z,2.40
2023-04-18T09:03:15.807Z,3.15
2023-04-18T09:06:19.349Z,4.40
2023-04-18T09:09:27.491Z,3.42
2023-04-18T09:12:29.979Z,4.88
2023-04-18T09:15:32.574Z,4.10
2023-04-18T09:18:34.991Z,5.43
2023-04-18T09:21:42.262Z,3.40
2023-04-18T09:24:59.105Z,4.00
2023-04-18T09:28:06.591Z,4.80
2023-04-18T09:31:15.811Z,4.65
2023-04-18T09:34:26.874Z,4.75
2023-04-18T09:37:30.024Z,4.53
2023-04-18T09:40:33.323Z,4.57
2023-04-18T09:43:35.577Z,5.50
2023-04-18T09:46:38.171Z,4.28
2023-04-18T09:49:40.941Z,4.15
2023-04-18T09:52:45.832Z,4.30
2023-04-18T09:55:55.534Z,4.50
2023-04-18T09:59:08.448Z,4.00
2023-04-18T10:02:17.289Z,3.60
2023-04-18T10:05:22.735Z,4.65
2023-04-18T10:08:26.702Z,2.30
2023-04-18T10:11:32.203Z,2.75
2023-04-18T10:14:35.500Z,4.68
2023-04-18T10:18:04.255Z,4.70
2023-04-18T10:21:09.864Z,4.63
2023-04-18T10:27:49.915Z,4.95
2023-04-18T10:30:57.415Z,2.75
2023-04-18T10:34:17.695Z,3.40
2023-04-18T10:37:20.552Z,5.05
2023-04-18T10:40:34.309Z,3.95
2023-04-18T10:44:15.368Z,6.00
2023-04-18T10:47:20.401Z,4.93
2023-04-18T10:50:23.368Z,3.47
2023-04-18T10:53:26.065Z,6.40
2023-04-18T10:56:29.201Z,5.63
2023-04-18T10:59:33.961Z,2.50
2023-04-18T11:02:37.331Z,2.30
2023-04-18T11:05:39.797Z,5.10
2023-04-18T11:08:43.173Z,5.63
2023-04-18T11:11:45.730Z,3.78
2023-04-18T11:14:54.522Z,5.10
2023-04-18T11:18:04.877Z,3.80
2023-04-18T11:21:08.348Z,4.97
2023-04-18T11:24:10.874Z,3.67
2023-04-18T11:27:14.402Z,4.22
2023-04-18T11:30:16.411Z,6.53
2023-04-18T11:33:18.997Z,2.20
2023-04-18T11:36:21.254Z,4.35
2023-04-18T11:39:24.420Z,4.78
2023-04-18T11:42:29.467Z,2.33
2023-04-18T11:45:32.176Z,3.55
2023-04-18T11:48:39.024Z,5.65
2023-04-18T11:51:46.323Z,5.25
2023-04-18T11:54:48.322Z,5.90
2023-04-18T11:57:54.357Z,6.95
2023-04-18T12:00:56.716Z,5.30
2023-04-18T12:04:02.757Z,3.35
2023-04-18T12:07:05.254Z,5.43
2023-04-18T12:10:10.375Z,5.82
2023-04-18T12:13:12.895Z,7.20
2023-04-18T12:16:15.530Z,5.18
2023-04-18T12:19:17.902Z,6.38
2023-04-18T12:22:20.390Z,5.75
2023-04-18T12:25:27.337Z,6.50
2023-04-18T12:28:31.323Z,6.75
2023-04-18T12:31:33.591Z,6.47
2023-04-18T12:34:36.193Z,5.75
2023-04-18T12:37:38.465Z,5.82
2023-04-18T12:40:41.189Z,6.82
2023-04-18T12:43:43.564Z,6.05
2023-04-18T12:46:46.287Z,7.35
2023-04-18T12:49:48.603Z,8.15
2023-04-18T12:52:56.124Z,6.68
2023-04-18T12:55:59.102Z,8.32
2023-04-18T12:59:01.681Z,6.70
2023-04-18T13:02:04.011Z,7.57
2023-04-18T13:05:11.585Z,8.10
2023-04-18T13:08:17.633Z,6.70
2023-04-18T13:11:22.753Z,8.90
2023-04-18T13:14:25.049Z,6.28
2023-04-18T13:17:27.721Z,6.78
2023-04-18T13:20:29.968Z,7.30
2023-04-18T13:23:32.921Z,7.60
2023-04-18T13:26:36.315Z,9.18
2023-04-18T13:29:39.980Z,8.43
2023-04-18T13:32:44.221Z,9.15
2023-04-18T13:35:47.091Z,9.05
2023-04-18T13:38:50.231Z,6.97
2023-04-18T13:41:55.000Z,8.98
2023-04-18T13:44:58.019Z,8.93
2023-04-18T13:48:00.802Z,8.85
2023-04-18T13:51:03.849Z,8.35
2023-04-18T13:54:06.267Z,5.25
2023-04-18T13:57:11.872Z,8.57
2023-04-18T14:00:15.444Z,9.05
2023-04-18T14:03:18.183Z,8.88
2023-04-18T14:06:21.543Z,8.43
2023-04-18T14:09:24.331Z,7.00
2023-04-18T14:12:27.010Z,8.50
2023-04-18T14:15:30.968Z,4.20
2023-04-18T14:18:33.762Z,6.82
2023-04-18T14:21:36.215Z,6.53
2023-04-18T14:24:38.808Z,5.15
2023-04-18T14:27:41.550Z,7.35
2023-04-18T14:30:44.576Z,5.50
2023-04-18T14:33:49.497Z,5.80
2023-04-18T14:36:52.776Z,7.40
2023-04-18T14:39:55.291Z,5.35
2023-04-18T14:42:57.749Z,7.40
2023-04-18T14:46:00.274Z,3.63
2023-04-18T14:49:02.886Z,7.45
2023-04-18T14:52:05.382Z,3.67
2023-04-18T14:55:09.794Z,6.22
2023-04-18T14:58:11.995Z,3.95
2023-04-18T15:01:14.735Z,3.10
2023-04-18T15:04:17.405Z,8.20
2023-04-18T15:07:20.530Z,6.45
2023-04-18T15:10:22.936Z,5.35
2023-04-18T15:13:25.849Z,6.75
2023-04-18T15:16:28.117Z,7.32
2023-04-18T15:19:32.148Z,5.00
2023-04-18T15:22:35.993Z,7.18
2023-04-18T15:25:39.186Z,8.33
2023-04-18T15:28:41.718Z,6.90
2023-04-18T15:31:45.166Z,7.13
2023-04-18T15:34:47.462Z,7.60
2023-04-18T15:37:51.582Z,4.35
2023-04-18T15:40:53.992Z,5.60
2023-04-18T15:43:56.494Z,6.13
2023-04-18T15:47:00.803Z,4.50
2023-04-18T15:50:04.290Z,7.80
2023-04-18T15:53:06.986Z,4.10
2023-04-18T15:56:10.172Z,7.43
2023-04-18T15:59:13.356Z,6.97
2023-04-18T16:02:16.168Z,5.15
2023-04-18T16:05:18.847Z,5.50
2023-04-18T16:08:21.507Z,6.25
2023-04-18T16:11:28.064Z,3.15
2023-04-18T16:14:31.837Z,6.38
2023-04-18T16:17:34.424Z,7.13
2023-04-18T16:20:37.416Z,4.38
2023-04-18T16:23:39.665Z,3.83
2023-04-18T16:26:42.348Z,6.18
2023-04-18T16:29:44.987Z,5.47
2023-04-18T16:32:47.935Z,6.55
2023-04-18T16:35:50.773Z,6.20
2023-04-18T16:38:53.331Z,5.05
2023-04-18T16:41:56.460Z,7.05
2023-04-18T16:44:59.207Z,6.60
2023-04-18T16:48:01.632Z,5.60
2023-04-18T16:51:04.564Z,5.93
2023-04-18T16:54:06.785Z,6.90
2023-04-18T16:57:09.907Z,5.70
2023-04-18T17:00:13.882Z,5.15
2023-04-18T17:03:16.354Z,5.97
2023-04-18T17:06:19.711Z,5.22
2023-04-18T17:09:22.443Z,6.20
2023-04-18T17:12:24.901Z,5.63
2023-04-18T17:15:28.540Z,6.65
2023-04-18T17:18:31.100Z,6.03
2023-04-18T17:21:34.853Z,6.00
2023-04-18T17:24:39.115Z,6.35
2023-04-18T17:30:44.566Z,5.88
2023-04-18T17:33:47.284Z,4.00
2023-04-18T17:36:49.665Z,5.15
2023-04-18T17:39:52.919Z,4.93
2023-04-18T17:42:55.225Z,5.00
2023-04-18T17:45:59.893Z,5.13
2023-04-18T17:49:02.464Z,5.00
2023-04-18T17:52:05.542Z,5.10
2023-04-18T17:55:08.932Z,4.50
2023-04-18T17:58:11.660Z,3.90
2023-04-18T18:01:19.122Z,3.75
2023-04-18T18:04:24.816Z,3.65
2023-04-18T18:07:28.499Z,3.40
2023-04-18T18:10:31.687Z,3.30
2023-04-18T18:13:34.085Z,3.97
2023-04-18T18:16:39.409Z,3.00
2023-04-18T18:19:41.724Z,3.85
2023-04-18T18:22:44.855Z,3.83
2023-04-18T18:25:47.232Z,2.88
2023-04-18T18:28:50.274Z,4.03
2023-04-18T18:31:52.758Z,4.10
2023-04-18T18:34:55.394Z,4.60
2023-04-18T18:37:57.860Z,4.30
2023-04-18T18:41:03.983Z,3.50
2023-04-18T18:44:07.171Z,4.90
2023-04-18T18:47:09.886Z,4.18
2023-04-18T18:50:12.135Z,4.05
2023-04-18T18:53:17.117Z,4.00
2023-04-18T18:56:19.448Z,3.22
2023-04-18T18:59:22.144Z,3.88
2023-04-18T19:02:24.782Z,4.30
2023-04-18T19:05:28.369Z,3.67
2023-04-18T19:08:31.913Z,4.07
2023-04-18T19:11:36.468Z,4.65
2023-04-18T19:14:39.744Z,5.07
2023-04-18T19:17:43.600Z,5.97
2023-04-18T19:20:46.957Z,4.03
2023-04-18T19:23:49.824Z,4.07
2023-04-18T19:26:52.180Z,4.90
2023-04-18T19:29:54.772Z,4.60
2023-04-18T19:32:57.602Z,5.07
2023-04-18T19:36:00.368Z,5.95
2023-04-18T19:39:02.616Z,4.20
2023-04-18T19:42:05.295Z,5.72
2023-04-18T19:45:08.031Z,4.60
2023-04-18T19:48:11.007Z,4.60
2023-04-18T19:51:13.551Z,5.93
2023-04-18T19:54:16.470Z,5.00
2023-04-18T19:57:18.753Z,5.35
2023-04-18T20:00:21.811Z,3.80
2023-04-18T20:03:24.070Z,5.65
2023-04-18T20:06:27.217Z,4.97
2023-04-18T20:09:29.666Z,5.90
2023-04-18T20:12:32.729Z,4.43
2023-04-18T20:15:34.842Z,4.50
2023-04-18T20:18:39.760Z,4.47
2023-04-18T20:21:42.029Z,4.68
2023-04-18T20:24:46.337Z,4.40
2023-04-18T20:27:49.074Z,5.30
2023-04-18T20:30:52.214Z,4.30
2023-04-18T20:33:54.313Z,3.15
2023-04-18T20:36:57.997Z,4.43
2023-04-18T20:40:02.951Z,4.05
2023-04-18T20:43:06.927Z,4.55
2023-04-18T20:46:14.712Z,4.30
2023-04-18T20:49:17.781Z,3.85
2023-04-18T20:52:20.160Z,3.63
2023-04-18T20:55:22.959Z,4.18
2023-04-18T20:58:25.510Z,3.92
2023-04-18T21:01:28.425Z,4.78
2023-04-18T21:04:30.685Z,3.40
2023-04-18T21:07:33.328Z,4.25
2023-04-18T21:10:35.596Z,2.60
2023-04-18T21:13:38.075Z,3.20
2023-04-18T21:16:40.233Z,3.92
2023-04-18T21:19:45.931Z,3.10
2023-04-18T21:22:47.996Z,3.25
2023-04-18T21:25:50.981Z,2.80
2023-04-18T21:29:00.345Z,2.22
2023-04-18T21:32:03.732Z,2.13
2023-04-18T21:35:06.301Z,3.05
2023-04-18T21:38:09.325Z,3.38
2023-04-18T21:41:14.366Z,2.13
2023-04-18T21:44:19.052Z,2.63
2023-04-18T21:47:21.629Z,2.38
2023-04-18T21:50:24.402Z,2.97
2023-04-18T21:53:26.871Z,2.28
2023-04-18T21:56:29.338Z,2.20
2023-04-18T21:59:31.727Z,2.45
2023-04-18T22:02:34.630Z,3.08
2023-04-18T22:05:37.710Z,3.53
2023-04-18T22:08:40.202Z,2.70
2023-04-18T22:11:42.243Z,1.60
2023-04-18T22:14:48.738Z,3.03
2023-04-18T22:17:51.135Z,2.10
2023-04-18T22:20:55.014Z,2.42
2023-04-18T22:23:58.172Z,2.42
2023-04-18T22:27:01.736Z,3.30
2023-04-18T22:30:04.989Z,2.08
2023-04-18T22:33:07.871Z,3.28
2023-04-18T22:36:10.112Z,1.95
2023-04-18T22:39:12.921Z,2.00
2023-04-18T22:42:15.306Z,2.80
2023-04-18T22:45:18.827Z,2.75
2023-04-18T22:48:21.312Z,2.90
2023-04-18T22:51:24.651Z,2.10
2023-04-18T22:54:27.071Z,1.88
2023-04-18T22:57:30.600Z,3.05
2023-04-18T23:00:32.880Z,3.30
2023-04-18T23:03:35.739Z,3.47
2023-04-18T23:06:38.924Z,2.65
2023-04-18T23:09:41.661Z,3.30
2023-04-18T23:12:44.365Z,2.08
2023-04-18T23:15:47.356Z,1.80
2023-04-18T23:18:49.505Z,3.03
2023-04-18T23:21:52.544Z,2.10
2023-04-18T23:24:55.624Z,2.35
2023-04-18T23:27:58.211Z,1.98
2023-04-18T23:31:00.802Z,4.18
2023-04-18T23:34:03.356Z,1.73
2023-04-18T23:37:05.811Z,1.90
2023-04-18T23:40:09.273Z,1.70
2023-04-18T23:43:11.465Z,4.32
2023-04-18T23:46:15.277Z,3.10
2023-04-18T23:49:17.649Z,1.98
2023-04-18T23:52:20.098Z,2.55
2023-04-18T23:55:22.234Z,1.98
2023-04-18T23:58:26.485Z,1.98
